Time;durP1;ratioP1;P1;durP2;ratioP2;P2;SDS_P1;SDS_P2;PMS_P1;PMS_P2;Temp;Humidity;BMP_temperature;BMP_pressure;BME280_temperature;BME280_humidity;BME280_pressure;Samples;Min_cycle;Max_cycle;Signal;HPM_P1;HPM_P2
2023/04/05 00:00:46;;;;;;;2.08;1.48;;;;;;;9.52;29.91;99837.91;4419974;32;33832;-62
2023/04/05 00:03:16;;;;;;;3.35;2.62;;;;;;;9.76;29.36;99835.34;4414222;32;34084;-62
2023/04/05 00:05:44;;;;;;;3.60;2.45;;;;;;;9.69;29.37;99831.38;4416798;32;35266;-62
2023/04/05 00:08:22;;;;;;;1.75;1.35;;;;;;;9.50;29.79;99831.78;4419911;32;33824;-63
2023/04/05 00:10:49;;;;;;;2.45;1.77;;;;;;;9.07;31.08;99832.06;4419251;32;32998;-63
2023/04/05 00:13:17;;;;;;;0.85;0.85;;;;;;;9.44;29.67;99829.56;4420858;32;34137;-63
2023/04/05 00:15:44;;;;;;;1.77;1.35;;;;;;;9.39;29.93;99824.53;4419894;32;31272;-64
2023/04/05 00:18:20;;;;;;;1.65;1.25;;;;;;;9.46;30.00;99833.81;4418831;32;33681;-62
2023/04/05 00:20:49;;;;;;;5.55;2.78;;;;;;;9.32;29.97;99820.56;4419620;32;32558;-63
2023/04/05 00:23:16;;;;;;;2.42;1.77;;;;;;;9.34;29.93;99829.31;4419579;32;35114;-62
2023/04/05 00:25:44;;;;;;;2.17;1.65;;;;;;;9.15;30.46;99823.50;4418502;32;34297;-61
2023/04/05 00:28:12;;;;;;;2.95;2.12;;;;;;;9.23;30.18;99823.88;4434066;32;34929;-61
2023/04/05 00:30:40;;;;;;;3.90;1.30;;;;;;;9.19;30.20;99817.03;4418597;32;32707;-62
2023/04/05 00:33:08;;;;;;;1.77;1.23;;;;;;;9.20;30.69;99822.25;4418549;32;34704;-63
2023/04/05 00:35:36;;;;;;;11.63;1.92;;;;;;;9.14;30.82;99816.47;4418715;32;33443;-62
2023/04/05 00:38:03;;;;;;;1.55;1.27;;;;;;;9.13;30.77;99814.78;4419699;32;33436;-63
2023/04/05 00:40:31;;;;;;;1.80;1.42;;;;;;;9.09;30.84;99819.47;4419937;32;35182;-62
2023/04/05 00:42:58;;;;;;;6.85;2.35;;;;;;;9.14;30.77;99820.00;4420020;32;35308;-63
2023/04/05 00:45:26;;;;;;;2.80;1.95;;;;;;;9.10;30.79;99822.03;4418756;32;33526;-65
2023/04/05 00:47:54;;;;;;;2.12;1.58;;;;;;;8.94;31.26;99812.47;4421300;32;33845;-63
2023/04/05 00:50:22;;;;;;;0.95;0.85;;;;;;;8.68;32.57;99811.53;4425179;32;33659;-62
2023/04/05 00:52:50;;;;;;;6.85;2.28;;;;;;;8.60;32.18;99810.25;4423052;32;32966;-62
2023/04/05 00:55:17;;;;;;;1.23;1.12;;;;;;;8.69;31.99;99811.44;4417342;32;34597;-63
2023/04/05 00:57:45;;;;;;;3.33;2.42;;;;;;;8.63;32.30;99818.06;4423876;32;33699;-61
2023/04/05 01:00:14;;;;;;;2.75;1.80;;;;;;;8.55;32.52;99817.69;4423945;32;33876;-63
2023/04/05 01:02:48;;;;;;;5.75;2.75;;;;;;;8.52;32.10;99817.87;4422579;32;33711;-65
2023/04/05 01:05:24;;;;;;;1.65;1.42;;;;;;;8.63;31.87;99812.72;4421221;32;33370;-64
2023/04/05 01:08:02;;;;;;;1.70;1.42;;;;;;;8.71;31.91;99814.88;4418837;32;34033;-66
2023/04/05 01:10:35;;;;;;;3.75;1.67;;;;;;;8.63;32.22;99820.72;4421219;32;33756;-63
2023/04/05 01:13:03;;;;;;;1.65;1.37;;;;;;;8.41;32.55;99807.06;4427661;32;33238;-63
2023/04/05 01:15:31;;;;;;;2.50;1.70;;;;;;;8.51;32.24;99807.31;4420196;32;34596;-62
2023/04/05 01:18:00;;;;;;;7.28;4.07;;;;;;;8.59;32.28;99811.19;4414260;32;33726;-63
2023/04/05 01:20:32;;;;;;;2.95;1.67;;;;;;;8.71;31.98;99811.34;4420390;32;33922;-63
2023/04/05 01:23:23;;;;;;;1.83;1.58;;;;;;;8.75;31.84;99812.84;4419335;32;34674;-63
2023/04/05 01:25:51;;;;;;;2.45;2.12;;;;;;;8.63;32.11;99811.84;4421013;32;33515;-61
2023/04/05 01:29:02;;;;;;;13.15;2.30;;;;;;;8.55;33.22;99812.34;4421363;32;32325;-62
2023/04/05 01:31:36;;;;;;;1.83;1.70;;;;;;;8.66;32.40;99805.44;4381938;32;33661;-64
2023/04/05 01:34:12;;;;;;;2.30;1.77;;;;;;;8.62;32.39;99800.31;4426362;32;33830;-63
2023/04/05 01:36:42;;;;;;;6.78;3.47;;;;;;;8.56;32.46;99808.72;4418988;32;33257;-64
2023/04/05 01:39:13;;;;;;;3.87;1.87;;;;;;;8.54;32.50;99799.97;4414022;32;34094;-61
2023/04/05 01:41:40;;;;;;;3.83;2.78;;;;;;;8.55;32.68;99804.34;4414396;32;35022;-61
2023/04/05 01:44:08;;;;;;;8.23;2.70;;;;;;;8.45;32.92;99797.06;4412522;32;33987;-61
2023/04/05 01:46:36;;;;;;;3.05;2.25;;;;;;;8.46;32.77;99804.09;4420461;32;33454;-62
2023/04/05 01:49:04;;;;;;;2.72;2.20;;;;;;;8.46;32.88;99794.28;4420607;32;33830;-63
2023/04/05 01:51:31;;;;;;;2.67;1.80;;;;;;;8.33;33.23;99798.66;4421288;32;35717;-63
2023/04/05 01:53:59;;;;;;;2.55;1.77;;;;;;;8.22;33.56;99801.16;4421674;32;34270;-65
2023/04/05 01:56:27;;;;;;;5.28;1.48;;;;;;;8.06;33.96;99794.16;4418643;32;34145;-64
2023/04/05 01:58:55;;;;;;;1.15;1.10;;;;;;;8.14;33.95;99801.66;4420384;32;35399;-65
2023/04/05 02:01:24;;;;;;;3.20;2.37;;;;;;;8.10;33.83;99798.31;4422954;32;33600;-61
2023/04/05 02:03:51;;;;;;;1.30;1.02;;;;;;;8.06;34.48;99794.16;4419786;32;33996;-62
2023/04/05 02:06:19;;;;;;;0.93;0.88;;;;;;;8.08;34.22;99792.22;4421687;32;34519;-63
2023/04/05 02:08:47;;;;;;;2.20;2.00;;;;;;;8.05;33.77;99797.75;4421678;32;33791;-63
2023/04/05 02:11:16;;;;;;;5.00;3.40;;;;;;;8.13;33.68;99791.94;4420353;32;33856;-65
2023/04/05 02:13:44;;;;;;;1.92;1.77;;;;;;;8.26;33.40;99792.00;4421295;32;34904;-65
2023/04/05 02:16:12;;;;;;;2.83;2.53;;;;;;;8.26;33.54;99798.19;4418013;32;32318;-64
2023/04/05 02:18:40;;;;;;;2.12;1.92;;;;;;;8.26;33.51;99797.34;4421710;32;34033;-63
2023/04/05 02:21:09;;;;;;;4.95;3.25;;;;;;;8.26;33.84;99794.69;4420032;32;33876;-65
2023/04/05 02:23:37;;;;;;;7.53;2.37;;;;;;;8.31;33.56;99790.75;4420953;32;37977;-62
2023/04/05 02:26:04;;;;;;;1.35;1.20;;;;;;;8.40;33.54;99786.66;4418670;32;33505;-62
2023/04/05 02:28:32;;;;;;;2.62;1.48;;;;;;;8.57;33.48;99791.78;4421040;32;33827;-62
2023/04/05 02:30:59;;;;;;;6.20;2.03;;;;;;;8.61;33.79;99787.94;4421959;32;33681;-62
2023/04/05 02:33:28;;;;;;;2.37;1.67;;;;;;;8.65;32.99;99795.75;4406394;32;33855;-61
2023/04/05 02:35:55;;;;;;;2.15;1.95;;;;;;;8.49;33.47;99787.87;4411902;32;33804;-62
2023/04/05 02:38:23;;;;;;;3.60;2.15;;;;;;;8.67;32.98;99791.12;4419711;32;33443;-62
2023/04/05 02:40:51;;;;;;;2.90;2.20;;;;;;;8.26;33.86;99786.69;4422240;32;33955;-64
2023/04/05 02:43:18;;;;;;;1.85;1.42;;;;;;;8.60;33.20;99788.91;4425224;32;32411;-64
2023/04/05 02:45:46;;;;;;;5.15;1.73;;;;;;;8.52;33.42;99790.34;4422090;32;34775;-61
2023/04/05 02:48:13;;;;;;;5.55;2.00;;;;;;;8.49;33.55;99794.06;4421547;32;32698;-62
2023/04/05 02:50:46;;;;;;;5.60;4.00;;;;;;;8.53;33.45;99786.72;4421432;32;34145;-61
2023/04/05 02:53:15;;;;;;;2.55;1.92;;;;;;;8.33;33.78;99788.84;4418492;32;33963;-62
2023/04/05 02:55:43;;;;;;;4.12;2.42;;;;;;;8.26;34.04;99784.00;4413220;32;33414;-62
2023/04/05 02:58:10;;;;;;;2.95;2.15;;;;;;;8.04;34.19;99781.88;4419763;32;34846;-63
2023/04/05 03:00:39;;;;;;;4.40;3.33;;;;;;;8.03;34.42;99778.34;4406126;32;34558;-61
2023/04/05 03:03:07;;;;;;;3.05;2.75;;;;;;;8.10;34.31;99786.81;4419576;32;33451;-62
2023/04/05 03:05:37;;;;;;;6.47;3.40;;;;;;;8.11;35.08;99784.03;4420391;32;35064;-62
2023/04/05 03:08:05;;;;;;;1.80;1.70;;;;;;;8.12;34.46;99783.09;4428993;32;34854;-60
2023/04/05 03:10:35;;;;;;;2.37;1.92;;;;;;;7.96;34.51;99779.69;4419438;32;33629;-63
2023/04/05 03:13:03;;;;;;;5.53;2.47;;;;;;;7.79;35.27;99783.41;4419142;32;34123;-64
2023/04/05 03:15:32;;;;;;;2.45;1.65;;;;;;;8.09;34.53;99782.41;4420558;32;34765;-62
2023/04/05 03:18:01;;;;;;;4.28;2.72;;;;;;;7.88;34.76;99779.31;4421282;32;34154;-62
2023/04/05 03:20:28;;;;;;;3.50;2.35;;;;;;;7.90;34.47;99788.94;4428434;32;34731;-61
2023/04/05 03:22:57;;;;;;;2.33;1.27;;;;;;;7.84;34.37;99786.66;4422849;32;33669;-61
2023/04/05 03:25:27;;;;;;;1.62;1.52;;;;;;;7.84;34.56;99785.81;4421288;32;34300;-65
2023/04/05 03:27:56;;;;;;;1.30;1.00;;;;;;;7.92;34.04;99794.16;4420766;32;33673;-61
2023/04/05 03:30:25;;;;;;;2.47;2.28;;;;;;;7.70;34.40;99787.53;4421270;32;33561;-62
2023/04/05 03:32:52;;;;;;;1.98;1.77;;;;;;;7.69;35.06;99788.44;4419237;32;33111;-63
2023/04/05 03:35:21;;;;;;;4.37;2.50;;;;;;;7.42;35.86;99790.16;4419983;32;34310;-63
2023/04/05 03:37:49;;;;;;;1.55;1.30;;;;;;;7.63;34.62;99796.81;4426708;32;33741;-63
2023/04/05 03:40:17;;;;;;;2.58;2.37;;;;;;;7.70;34.43;99798.19;4421234;32;34204;-62
2023/04/05 03:42:45;;;;;;;1.12;1.00;;;;;;;7.65;34.47;99802.91;4419328;32;34074;-62
2023/04/05 03:45:13;;;;;;;3.53;2.65;;;;;;;7.44;35.48;99797.09;4420430;32;33470;-61
2023/04/05 03:47:41;;;;;;;4.47;3.12;;;;;;;6.79;36.76;99803.69;4425966;32;34659;-62
2023/04/05 03:50:09;;;;;;;5.05;2.65;;;;;;;7.30;35.25;99802.41;4420571;32;33965;-63
2023/04/05 03:52:37;;;;;;;1.42;1.23;;;;;;;7.29;35.11;99810.47;4426216;32;34937;-62
2023/04/05 03:55:05;;;;;;;2.25;1.50;;;;;;;6.71;39.83;99809.47;4421235;32;33485;-64
2023/04/05 03:57:33;;;;;;;2.72;2.50;;;;;;;7.05;36.12;99816.31;4417268;32;99042;-65
2023/04/05 04:00:12;;;;;;;8.75;3.03;;;;;;;6.62;36.86;99807.34;4417493;32;33724;-62
2023/04/05 04:02:47;;;;;;;2.55;2.15;;;;;;;6.94;35.80;99814.31;4415661;32;34002;-63
2023/04/05 04:05:16;;;;;;;4.12;3.10;;;;;;;6.85;36.09;99813.97;4425124;32;33681;-62
2023/04/05 04:07:46;;;;;;;5.30;2.72;;;;;;;6.94;35.90;99818.78;4419290;32;32182;-63
2023/04/05 04:10:16;;;;;;;2.17;1.98;;;;;;;7.02;35.64;99819.16;4419287;32;35015;-63
2023/04/05 04:12:45;;;;;;;1.85;1.25;;;;;;;6.89;35.74;99819.03;4416789;32;34861;-63
2023/04/05 04:15:13;;;;;;;9.23;3.72;;;;;;;6.99;36.77;99822.84;4421662;32;34671;-63
2023/04/05 04:17:41;;;;;;;6.18;2.83;;;;;;;7.05;35.37;99818.13;4420976;32;33800;-63
2023/04/05 04:20:11;;;;;;;5.57;3.60;;;;;;;6.97;35.69;99819.44;4411766;32;35022;-62
2023/04/05 04:22:39;;;;;;;1.77;1.67;;;;;;;7.22;35.19;99821.53;4419021;32;34108;-64
2023/04/05 04:25:09;;;;;;;3.03;1.85;;;;;;;7.04;36.79;99819.94;4416868;32;34834;-61
2023/04/05 04:27:42;;;;;;;2.33;1.95;;;;;;;6.99;36.01;99814.03;4419539;32;32410;-62
2023/04/05 04:30:12;;;;;;;2.47;2.22;;;;;;;7.26;35.34;99822.19;4427917;32;35146;-62
2023/04/05 04:32:54;;;;;;;3.58;2.37;;;;;;;7.44;34.95;99813.06;4424963;32;35154;-63
2023/04/05 04:35:27;;;;;;;2.67;2.42;;;;;;;7.51;35.08;99816.22;4420323;32;33094;-64
2023/04/05 04:38:04;;;;;;;2.30;1.95;;;;;;;7.24;37.29;99818.75;4427762;32;33525;-63
2023/04/05 04:40:39;;;;;;;1.85;1.75;;;;;;;7.46;34.60;99815.66;4426506;32;32796;-63
2023/04/05 04:43:17;;;;;;;2.55;2.35;;;;;;;7.04;37.11;99822.59;4418136;32;34203;-62
2023/04/05 04:45:47;;;;;;;28.60;3.25;;;;;;;7.53;34.82;99821.47;4422669;32;34495;-63
2023/04/05 04:48:17;;;;;;;3.65;3.15;;;;;;;7.59;35.22;99823.75;4419351;32;34716;-63
2023/04/05 04:50:46;;;;;;;3.15;2.00;;;;;;;7.65;35.05;99820.72;4425753;32;33813;-64
2023/04/05 04:53:16;;;;;;;2.40;2.20;;;;;;;7.96;34.12;99821.47;4418480;32;34011;-64
2023/04/05 04:55:44;;;;;;;2.10;1.75;;;;;;;7.44;37.54;99820.19;4416142;32;33903;-64
2023/04/05 04:58:12;;;;;;;3.37;2.05;;;;;;;7.84;35.04;99829.28;4418687;32;33461;-62
2023/04/05 05:00:43;;;;;;;3.78;2.97;;;;;;;7.65;36.19;99824.22;4416464;32;32773;-63
2023/04/05 05:03:12;;;;;;;2.53;2.05;;;;;;;7.69;35.13;99835.56;4421966;32;34143;-63
2023/04/05 05:05:47;;;;;;;3.78;2.62;;;;;;;7.94;34.20;99825.09;4418807;32;33040;-63
2023/04/05 05:08:16;;;;;;;6.75;2.97;;;;;;;7.86;35.19;99830.03;4421392;32;32070;-62
2023/04/05 05:10:54;;;;;;;8.85;3.30;;;;;;;7.69;35.00;99833.75;4422947;32;33723;-63
2023/04/05 05:13:21;;;;;;;3.17;2.12;;;;;;;7.68;35.03;99832.03;4429872;32;35013;-64
2023/04/05 05:15:49;;;;;;;3.33;2.87;;;;;;;7.45;35.88;99832.59;4419605;32;34804;-64
2023/04/05 05:18:16;;;;;;;3.50;2.83;;;;;;;7.99;34.90;99827.44;4423406;32;33977;-62
2023/04/05 05:20:44;;;;;;;2.47;2.08;;;;;;;8.51;33.84;99832.19;4418317;32;35167;-63
2023/04/05 05:23:12;;;;;;;5.93;4.07;;;;;;;8.78;33.71;99836.66;4418349;32;34863;-61
2023/04/05 05:25:39;;;;;;;2.85;2.30;;;;;;;9.25;32.63;99837.97;4417072;32;34370;-64
2023/04/05 05:28:07;;;;;;;4.12;2.70;;;;;;;9.50;32.54;99835.34;4417897;32;34634;-63
2023/04/05 05:30:34;;;;;;;4.62;2.87;;;;;;;9.98;31.98;99840.91;4416590;32;34033;-62
2023/04/05 05:33:03;;;;;;;6.20;3.62;;;;;;;10.57;30.25;99842.09;4416850;32;34143;-63
2023/04/05 05:35:30;;;;;;;4.30;3.30;;;;;;;10.38;30.41;99838.06;4409129;32;32583;-64
2023/04/05 05:37:58;;;;;;;6.93;3.20;;;;;;;10.13;31.10;99846.09;4426149;32;33897;-62
2023/04/05 05:40:25;;;;;;;3.70;2.85;;;;;;;9.63;32.90;99842.50;4420933;32;33915;-62
2023/04/05 05:42:53;;;;;;;2.45;2.08;;;;;;;9.84;31.92;99843.69;4421126;32;35185;-61
2023/04/05 05:45:21;;;;;;;5.55;4.25;;;;;;;9.98;30.97;99835.56;4419069;32;33384;-63
2023/04/05 05:47:48;;;;;;;3.45;3.12;;;;;;;9.93;31.12;99837.69;4422004;32;34816;-62
2023/04/05 05:50:16;;;;;;;4.15;2.17;;;;;;;9.31;32.23;99841.09;4419009;32;33709;-62
2023/04/05 05:52:43;;;;;;;3.42;2.15;;;;;;;9.02;33.17;99839.50;4419587;32;33865;-62
2023/04/05 05:55:11;;;;;;;4.85;2.28;;;;;;;8.42;35.16;99837.25;4421684;32;33389;-64
2023/04/05 05:57:39;;;;;;;3.28;2.15;;;;;;;9.06;34.49;99839.22;4421219;32;33613;-63
2023/04/05 06:00:10;;;;;;;4.87;2.40;;;;;;;9.33;32.81;99838.28;4425284;32;33684;-62
2023/04/05 06:02:37;;;;;;;4.70;2.67;;;;;;;9.94;31.69;99831.38;4422671;32;33998;-62
2023/04/05 06:05:06;;;;;;;5.93;4.35;;;;;;;9.52;32.28;99830.72;4418416;32;34580;-64
2023/04/05 06:07:36;;;;;;;2.72;2.03;;;;;;;9.43;32.58;99836.72;4419548;32;34792;-64
2023/04/05 06:10:05;;;;;;;7.53;4.97;;;;;;;9.69;32.25;99826.03;4420277;32;33820;-62
2023/04/05 06:12:33;;;;;;;4.97;3.65;;;;;;;9.69;31.62;99837.56;4421312;32;34145;-63
2023/04/05 06:15:01;;;;;;;4.40;2.92;;;;;;;9.20;33.84;99829.41;4424130;32;33454;-62
2023/04/05 06:17:28;;;;;;;4.80;3.15;;;;;;;8.97;33.57;99830.97;4417468;32;32563;-61
2023/04/05 06:19:56;;;;;;;4.90;2.83;;;;;;;9.27;32.98;99836.03;4415921;32;32767;-61
2023/04/05 06:22:23;;;;;;;7.97;5.30;;;;;;;9.88;32.13;99831.78;4417993;32;33876;-61
2023/04/05 06:24:51;;;;;;;5.55;4.45;;;;;;;9.45;32.83;99829.44;4420141;32;33505;-62
2023/04/05 06:27:19;;;;;;;3.92;3.42;;;;;;;9.76;33.04;99830.84;4424072;32;33863;-62
2023/04/05 06:29:46;;;;;;;6.12;4.15;;;;;;;9.06;34.38;99838.38;4421055;32;33804;-62
2023/04/05 06:32:14;;;;;;;6.00;3.85;;;;;;;10.29;30.88;99836.06;4416454;32;34035;-61
2023/04/05 06:34:41;;;;;;;6.97;4.30;;;;;;;9.83;32.75;99833.09;4419831;32;33565;-61
2023/04/05 06:37:09;;;;;;;21.75;4.95;;;;;;;10.16;31.17;99835.19;4420329;32;33861;-63
2023/04/05 06:39:37;;;;;;;2.55;1.98;;;;;;;10.33;31.17;99836.69;4420963;32;32862;-61
2023/04/05 06:42:05;;;;;;;2.28;2.05;;;;;;;10.45;31.24;99836.66;4433191;32;35085;-62
2023/04/05 06:44:36;;;;;;;2.40;2.10;;;;;;;10.32;31.37;99830.47;4422127;32;34734;-61
2023/04/05 06:47:04;;;;;;;7.78;4.60;;;;;;;10.53;31.36;99825.41;4425937;32;32568;-62
2023/04/05 06:49:31;;;;;;;3.60;2.83;;;;;;;10.09;30.88;99832.09;4418961;32;35362;-61
2023/04/05 06:52:00;;;;;;;6.30;4.68;;;;;;;10.66;30.01;99831.56;4423181;32;33689;-61
2023/04/05 06:54:28;;;;;;;12.43;4.75;;;;;;;10.58;31.98;99825.06;4420769;32;33669;-61
2023/04/05 06:56:55;;;;;;;3.87;3.00;;;;;;;9.61;33.04;99828.41;4420057;32;33853;-63
2023/04/05 06:59:24;;;;;;;2.95;2.60;;;;;;;10.00;32.61;99830.09;4408668;32;35074;-63
2023/04/05 07:01:52;;;;;;;2.72;1.65;;;;;;;10.63;30.80;99828.25;4420772;32;33955;-62
2023/04/05 07:04:19;;;;;;;2.87;2.50;;;;;;;9.98;32.98;99829.31;4415254;32;31684;-62
2023/04/05 07:06:46;;;;;;;7.45;4.00;;;;;;;10.39;30.35;99825.53;4413818;32;33832;-63
2023/04/05 07:09:14;;;;;;;4.28;2.92;;;;;;;10.67;31.33;99824.38;4417928;32;33647;-61
2023/04/05 07:11:42;;;;;;;3.55;2.95;;;;;;;10.65;30.93;99818.28;4418769;32;34989;-61
2023/04/05 07:14:09;;;;;;;4.95;3.05;;;;;;;10.31;31.18;99822.59;4419544;32;33468;-63
2023/04/05 07:16:37;;;;;;;6.03;2.90;;;;;;;10.77;30.24;99832.59;4420746;32;33255;-62
2023/04/05 07:19:05;;;;;;;2.97;1.80;;;;;;;10.70;30.90;99830.34;4420418;32;33971;-61
2023/04/05 07:21:32;;;;;;;4.32;2.90;;;;;;;10.63;31.55;99825.59;4418459;32;33937;-60
2023/04/05 07:24:02;;;;;;;4.90;2.75;;;;;;;11.27;29.45;99828.78;4419932;32;34385;-64
2023/04/05 07:26:29;;;;;;;2.00;1.80;;;;;;;10.67;30.71;99827.91;4412606;32;32908;-61
2023/04/05 07:28:56;;;;;;;5.75;2.72;;;;;;;10.85;29.44;99828.38;4419086;32;33863;-61
2023/04/05 07:31:24;;;;;;;3.62;2.85;;;;;;;10.94;29.63;99832.16;4420683;32;33853;-61
2023/04/05 07:33:52;;;;;;;5.47;3.42;;;;;;;10.66;31.21;99831.56;4419378;32;33224;-61
2023/04/05 07:36:19;;;;;;;3.30;2.42;;;;;;;11.20;28.36;99832.87;4422024;32;33673;-64
2023/04/05 07:38:47;;;;;;;4.35;3.10;;;;;;;11.46;30.08;99827.34;4420597;32;33943;-61
2023/04/05 07:41:17;;;;;;;5.35;2.72;;;;;;;11.46;29.81;99824.66;4420822;32;34966;-60
2023/04/05 07:43:45;;;;;;;4.03;2.50;;;;;;;10.99;28.38;99826.47;4422378;32;35071;-60
2023/04/05 07:46:13;;;;;;;6.00;2.65;;;;;;;10.82;27.90;99828.59;4410111;32;34703;-64
2023/04/05 07:48:40;;;;;;;5.30;3.00;;;;;;;10.87;30.42;99828.25;4412110;32;33962;-61
2023/04/05 07:51:08;;;;;;;5.25;4.20;;;;;;;11.26;29.14;99829.72;4418536;32;35079;-60
2023/04/05 07:53:36;;;;;;;8.02;2.95;;;;;;;11.31;29.23;99834.75;4420904;32;32417;-61
2023/04/05 07:56:05;;;;;;;2.62;1.92;;;;;;;11.59;27.76;99831.66;4419594;32;32806;-61
2023/04/05 07:58:34;;;;;;;7.60;3.62;;;;;;;11.70;27.37;99824.59;4420191;32;35539;-63
2023/04/05 08:01:02;;;;;;;1.55;1.45;;;;;;;11.12;28.30;99832.63;4417883;32;33784;-61
2023/04/05 08:03:31;;;;;;;6.72;2.97;;;;;;;10.81;27.84;99816.16;4421215;32;33588;-62
2023/04/05 08:05:58;;;;;;;4.03;2.37;;;;;;;10.77;28.63;99817.37;4420769;32;32418;-63
2023/04/05 08:08:26;;;;;;;5.03;3.10;;;;;;;11.55;27.87;99815.91;4417596;32;34095;-62
2023/04/05 08:10:54;;;;;;;3.17;2.55;;;;;;;12.62;26.62;99820.81;4423740;32;34206;-62
2023/04/05 08:13:21;;;;;;;5.43;3.55;;;;;;;12.48;25.41;99818.37;4426062;32;33470;-61
2023/04/05 08:15:49;;;;;;;3.83;2.95;;;;;;;12.96;25.98;99821.53;4418687;32;34641;-61
2023/04/05 08:18:18;;;;;;;3.45;2.90;;;;;;;12.85;27.60;99826.13;4416844;32;34040;-63
2023/04/05 08:20:50;;;;;;;4.55;3.45;;;;;;;13.45;25.16;99824.63;4418382;32;35174;-62
2023/04/05 08:23:17;;;;;;;4.90;2.47;;;;;;;13.94;24.55;99826.63;4421917;32;32425;-62
2023/04/05 08:25:45;;;;;;;6.65;4.25;;;;;;;14.53;23.81;99819.66;4415163;32;33874;-62
2023/04/05 08:28:12;;;;;;;6.45;3.55;;;;;;;14.83;24.19;99817.84;4419188;32;33396;-63
2023/04/05 08:30:41;;;;;;;6.93;3.72;;;;;;;14.58;24.46;99821.94;4419203;32;35016;-62
2023/04/05 08:33:09;;;;;;;5.00;2.33;;;;;;;14.68;22.70;99815.56;4419175;32;33742;-63
2023/04/05 08:35:36;;;;;;;4.05;2.60;;;;;;;14.52;22.36;99811.72;4415584;32;31256;-63
2023/04/05 08:38:05;;;;;;;5.65;3.78;;;;;;;14.15;23.17;99817.66;4421627;32;34029;-64
2023/04/05 08:40:39;;;;;;;4.60;3.10;;;;;;;13.28;26.24;99820.69;4419159;32;35577;-63
2023/04/05 08:43:30;;;;;;;3.25;2.30;;;;;;;13.28;24.04;99816.16;4415200;32;33348;-63
2023/04/05 08:45:58;;;;;;;5.57;3.45;;;;;;;13.54;23.76;99812.25;4419349;32;32116;-63
2023/04/05 08:48:30;;;;;;;4.57;2.80;;;;;;;14.06;24.84;99810.37;4418052;32;33937;-63
2023/04/05 08:50:57;;;;;;;5.03;3.08;;;;;;;13.23;25.36;99810.31;4417455;32;34134;-63
2023/04/05 08:53:25;;;;;;;4.10;2.62;;;;;;;13.92;23.86;99811.59;4420375;32;32293;-63
2023/04/05 08:55:56;;;;;;;3.08;2.25;;;;;;;13.19;25.68;99810.69;4415749;32;33774;-65
2023/04/05 08:58:24;;;;;;;3.53;1.95;;;;;;;14.00;23.51;99806.41;4416497;32;34947;-64
2023/04/05 09:00:52;;;;;;;2.62;2.00;;;;;;;13.46;25.39;99811.06;4418677;32;33938;-66
2023/04/05 09:03:27;;;;;;;3.92;2.40;;;;;;;13.88;23.38;99805.66;4417671;32;33792;-63
2023/04/05 09:05:57;;;;;;;9.50;2.83;;;;;;;13.57;24.73;99810.13;4413940;32;33836;-62
2023/04/05 09:08:26;;;;;;;5.00;2.00;;;;;;;13.39;23.71;99809.91;4420693;32;35010;-62
2023/04/05 09:10:53;;;;;;;10.43;2.50;;;;;;;13.93;22.41;99816.88;4420228;32;34092;-62
2023/04/05 09:13:20;;;;;;;3.35;2.42;;;;;;;13.40;23.22;99808.06;4416956;32;32712;-64
2023/04/05 09:15:48;;;;;;;4.97;2.08;;;;;;;13.21;25.80;99806.91;4422314;32;33863;-64
2023/04/05 09:18:16;;;;;;;4.40;2.10;;;;;;;12.89;25.00;99812.28;4414911;32;32861;-62
2023/04/05 09:21:04;;;;;;;8.65;2.25;;;;;;;12.77;25.60;99806.09;4423309;32;33970;-62
2023/04/05 09:23:35;;;;;;;5.55;3.35;;;;;;;13.28;26.06;99796.50;4421172;32;32378;-61
2023/04/05 09:26:18;;;;;;;7.47;2.80;;;;;;;12.88;25.89;99799.84;4419432;32;35244;-65
2023/04/05 09:28:47;;;;;;;3.70;2.45;;;;;;;13.15;25.54;99810.09;4414237;32;34893;-62
2023/04/05 09:31:28;;;;;;;5.57;2.70;;;;;;;13.28;24.32;99808.09;4415922;32;33824;-63
2023/04/05 09:34:05;;;;;;;5.47;3.25;;;;;;;13.44;23.94;99799.59;4418873;32;33627;-62
2023/04/05 09:36:33;;;;;;;3.53;2.47;;;;;;;13.07;25.31;99803.69;4419760;32;35058;-63
2023/04/05 09:39:08;;;;;;;3.50;2.83;;;;;;;13.18;25.84;99796.41;4416863;32;33943;-64
2023/04/05 09:41:36;;;;;;;3.05;2.05;;;;;;;13.33;25.19;99794.28;4418216;32;34042;-64
2023/04/05 09:44:04;;;;;;;3.00;2.40;;;;;;;13.78;23.32;99787.75;4420202;32;33225;-62
2023/04/05 09:46:33;;;;;;;7.12;3.80;;;;;;;13.00;25.87;99793.47;4418962;32;33720;-66
2023/04/05 09:49:02;;;;;;;5.78;2.90;;;;;;;13.38;25.82;99792.03;4415622;32;33834;-67
2023/04/05 09:51:34;;;;;;;6.12;3.17;;;;;;;13.90;23.37;99779.47;4417232;32;34423;-61
2023/04/05 09:54:05;;;;;;;11.32;3.58;;;;;;;13.79;24.16;99787.63;4419333;32;33678;-61
2023/04/05 09:56:37;;;;;;;4.85;3.17;;;;;;;13.70;24.74;99783.88;4419042;32;33784;-62
2023/04/05 09:59:10;;;;;;;4.70;3.08;;;;;;;13.86;24.45;99777.16;4416013;32;34026;-61
2023/04/05 10:01:42;;;;;;;11.70;3.12;;;;;;;14.52;23.32;99766.78;4418028;32;34931;-60
2023/04/05 10:04:10;;;;;;;6.07;2.45;;;;;;;14.32;23.71;99770.41;4420380;32;34889;-61
2023/04/05 10:06:39;;;;;;;3.62;2.42;;;;;;;14.90;23.30;99776.75;4416377;32;32742;-63
2023/04/05 10:09:09;;;;;;;6.47;2.90;;;;;;;14.62;23.80;99774.88;4417667;32;33326;-63
2023/04/05 10:11:38;;;;;;;2.87;1.85;;;;;;;14.72;22.84;99766.81;4421014;32;33348;-61
2023/04/05 10:14:07;;;;;;;4.20;2.55;;;;;;;14.31;23.07;99757.91;4418738;32;34536;-61
2023/04/05 10:16:52;;;;;;;6.53;3.90;;;;;;;14.67;23.09;99768.09;4418463;32;33957;-62
2023/04/05 10:19:27;;;;;;;4.50;3.03;;;;;;;13.99;23.37;99764.34;4420471;32;34032;-62
2023/04/05 10:21:57;;;;;;;2.92;1.75;;;;;;;14.51;22.24;99765.09;4420881;32;34014;-62
2023/04/05 10:24:49;;;;;;;3.25;1.70;;;;;;;13.64;24.50;99764.75;4419569;32;34037;-62
2023/04/05 10:27:21;;;;;;;5.37;3.03;;;;;;;14.16;24.58;99752.09;4418849;32;32318;-62
2023/04/05 10:29:57;;;;;;;3.62;2.50;;;;;;;14.00;23.57;99752.59;4414513;32;34880;-61
2023/04/05 10:32:34;;;;;;;4.82;2.53;;;;;;;14.23;24.19;99755.06;4418277;32;33169;-61
2023/04/05 10:35:15;;;;;;;3.58;2.75;;;;;;;14.43;24.24;99746.03;4416893;32;33153;-63
2023/04/05 10:38:12;;;;;;;7.62;3.80;;;;;;;14.47;25.32;99747.44;4419469;32;33857;-62
2023/04/05 10:40:43;;;;;;;7.75;4.80;;;;;;;14.49;24.09;99750.88;4419077;32;35293;-62
2023/04/05 10:43:16;;;;;;;4.60;2.40;;;;;;;15.07;22.32;99740.13;4412870;32;33741;-61
2023/04/05 10:45:45;;;;;;;5.65;3.62;;;;;;;14.40;23.38;99741.78;4409868;32;33585;-61
2023/04/05 10:48:47;;;;;;;4.18;3.17;;;;;;;14.65;23.38;99740.44;4419847;32;33733;-60
2023/04/05 10:51:15;;;;;;;6.60;3.60;;;;;;;13.91;23.53;99750.72;4413077;32;32862;-61
2023/04/05 10:53:43;;;;;;;3.30;2.28;;;;;;;14.49;23.12;99736.56;4418863;32;34899;-63
2023/04/05 10:56:10;;;;;;;4.10;2.90;;;;;;;14.15;23.20;99735.06;4419522;32;32388;-64
2023/04/05 10:58:41;;;;;;;8.27;3.60;;;;;;;14.91;23.15;99739.88;4420455;32;33875;-62
2023/04/05 11:01:09;;;;;;;5.80;3.17;;;;;;;15.08;22.77;99727.50;4414244;32;33892;-62
2023/04/05 11:03:48;;;;;;;3.90;2.25;;;;;;;14.97;23.72;99724.97;4419103;32;34062;-61
2023/04/05 11:06:27;;;;;;;4.85;2.55;;;;;;;15.86;21.51;99724.59;4417959;32;33781;-62
2023/04/05 11:09:20;;;;;;;4.78;2.85;;;;;;;15.18;23.23;99731.03;4417851;32;33697;-62
2023/04/05 11:11:48;;;;;;;5.50;3.62;;;;;;;15.49;23.07;99726.28;4420669;32;32634;-62
2023/04/05 11:14:24;;;;;;;7.70;4.35;;;;;;;15.84;21.75;99731.00;4421981;32;34229;-62
2023/04/05 11:16:55;;;;;;;5.37;3.80;;;;;;;15.82;22.27;99724.06;4420041;32;34521;-63
2023/04/05 11:19:41;;;;;;;3.85;2.87;;;;;;;15.96;22.40;99725.44;4410466;32;33941;-62
2023/04/05 11:22:10;;;;;;;8.57;3.12;;;;;;;16.06;23.16;99726.22;4416573;32;35176;-63
2023/04/05 11:24:57;;;;;;;4.65;3.67;;;;;;;15.67;22.76;99720.16;4418639;32;35362;-62
2023/04/05 11:27:30;;;;;;;4.62;3.00;;;;;;;15.85;21.91;99718.34;4420605;32;33457;-62
2023/04/05 11:29:59;;;;;;;9.23;4.05;;;;;;;15.92;22.42;99719.47;4417226;32;33855;-62
2023/04/05 11:32:41;;;;;;;4.78;2.80;;;;;;;15.98;21.67;99726.94;4419681;32;33814;-64
2023/04/05 11:35:14;;;;;;;6.43;4.00;;;;;;;15.91;21.78;99717.75;4415521;32;35231;-61
2023/04/05 11:37:59;;;;;;;6.15;3.12;;;;;;;14.60;22.56;99721.13;4417921;32;33389;-62
2023/04/05 11:40:29;;;;;;;6.45;2.95;;;;;;;15.38;23.47;99716.53;4421242;32;34530;-62
2023/04/05 11:43:08;;;;;;;4.55;2.83;;;;;;;15.26;21.52;99717.69;4416821;32;36233;-62
2023/04/05 11:45:37;;;;;;;5.20;3.67;;;;;;;15.47;21.78;99706.69;4419930;32;35001;-61
2023/04/05 11:48:10;;;;;;;4.95;3.75;;;;;;;15.05;21.72;99712.47;4414402;32;33397;-61
2023/04/05 11:50:42;;;;;;;8.32;3.65;;;;;;;14.25;22.41;99702.78;4416239;32;34889;-61